sensor_id;sensor_type;location;lat;lon;timestamp;P1;durP1;ratioP1;P2;durP2;ratioP2
11010;SDS011;5558;42.702;23.178;2022-09-13T00:01:00;4.33;;;3.93;;
11010;SDS011;5558;42.702;23.178;2022-09-13T00:03:28;4.30;;;3.90;;
11010;SDS011;5558;42.702;23.178;2022-09-13T00:05:55;4.47;;;4.03;;
11010;SDS011;5558;42.702;23.178;2022-09-13T00:08:24;4.30;;;3.90;;
11010;SDS011;5558;42.702;23.178;2022-09-13T00:10:51;4.47;;;4.07;;
11010;SDS011;5558;42.702;23.178;2022-09-13T00:13:18;4.10;;;3.80;;
11010;SDS011;5558;42.702;23.178;2022-09-13T00:15:46;4.23;;;3.70;;
11010;SDS011;5558;42.702;23.178;2022-09-13T00:18:15;4.20;;;3.80;;
11010;SDS011;5558;42.702;23.178;2022-09-13T00:20:44;4.00;;;3.70;;
11010;SDS011;5558;42.702;23.178;2022-09-13T00:23:11;4.33;;;3.93;;
11010;SDS011;5558;42.702;23.178;2022-09-13T00:25:38;4.43;;;4.00;;
11010;SDS011;5558;42.702;23.178;2022-09-13T00:28:05;3.97;;;3.60;;
11010;SDS011;5558;42.702;23.178;2022-09-13T00:30:32;4.17;;;3.80;;
11010;SDS011;5558;42.702;23.178;2022-09-13T00:32:59;4.20;;;3.87;;
11010;SDS011;5558;42.702;23.178;2022-09-13T00:35:28;4.40;;;4.00;;
11010;SDS011;5558;42.702;23.178;2022-09-13T00:37:59;4.40;;;4.00;;
11010;SDS011;5558;42.702;23.178;2022-09-13T00:40:26;5.23;;;4.20;;
11010;SDS011;5558;42.702;23.178;2022-09-13T00:42:54;4.63;;;4.23;;
11010;SDS011;5558;42.702;23.178;2022-09-13T00:45:21;4.87;;;4.40;;
11010;SDS011;5558;42.702;23.178;2022-09-13T00:47:48;4.30;;;3.90;;
11010;SDS011;5558;42.702;23.178;2022-09-13T00:50:22;4.20;;;3.80;;
11010;SDS011;5558;42.702;23.178;2022-09-13T00:52:53;4.23;;;3.93;;
11010;SDS011;5558;42.702;23.178;2022-09-13T00:55:25;4.00;;;3.70;;
11010;SDS011;5558;42.702;23.178;2022-09-13T00:57:56;4.30;;;3.90;;
11010;SDS011;5558;42.702;23.178;2022-09-13T01:00:28;4.37;;;3.97;;
11010;SDS011;5558;42.702;23.178;2022-09-13T01:02:56;4.07;;;3.67;;
11010;SDS011;5558;42.702;23.178;2022-09-13T01:05:28;4.37;;;3.97;;
11010;SDS011;5558;42.702;23.178;2022-09-13T01:07:58;4.57;;;4.17;;
11010;SDS011;5558;42.702;23.178;2022-09-13T01:10:27;4.37;;;4.00;;
11010;SDS011;5558;42.702;23.178;2022-09-13T01:12:57;4.63;;;4.23;;
11010;SDS011;5558;42.702;23.178;2022-09-13T01:15:30;4.40;;;4.00;;
11010;SDS011;5558;42.702;23.178;2022-09-13T01:17:57;4.10;;;3.80;;
11010;SDS011;5558;42.702;23.178;2022-09-13T01:20:25;4.13;;;3.80;;
11010;SDS011;5558;42.702;23.178;2022-09-13T01:23:09;4.60;;;3.80;;
11010;SDS011;5558;42.702;23.178;2022-09-13T01:26:10;4.40;;;4.00;;
11010;SDS011;5558;42.702;23.178;2022-09-13T01:29:04;4.80;;;4.37;;
11010;SDS011;5558;42.702;23.178;2022-09-13T01:31:55;4.47;;;4.07;;
11010;SDS011;5558;42.702;23.178;2022-09-13T01:34:33;5.23;;;4.73;;
11010;SDS011;5558;42.702;23.178;2022-09-13T01:37:15;4.60;;;4.10;;
11010;SDS011;5558;42.702;23.178;2022-09-13T01:39:58;5.23;;;4.63;;
11010;SDS011;5558;42.702;23.178;2022-09-13T01:42:35;4.80;;;4.40;;
11010;SDS011;5558;42.702;23.178;2022-09-13T01:45:15;4.57;;;4.20;;
11010;SDS011;5558;42.702;23.178;2022-09-13T01:47:51;4.40;;;4.00;;
11010;SDS011;5558;42.702;23.178;2022-09-13T01:50:24;4.70;;;4.30;;
11010;SDS011;5558;42.702;23.178;2022-09-13T01:53:02;4.43;;;4.03;;
11010;SDS011;5558;42.702;23.178;2022-09-13T01:55:34;5.70;;;4.17;;
11010;SDS011;5558;42.702;23.178;2022-09-13T01:58:10;4.40;;;4.00;;
11010;SDS011;5558;42.702;23.178;2022-09-13T02:00:47;5.73;;;4.03;;
11010;SDS011;5558;42.702;23.178;2022-09-13T02:03:24;4.43;;;4.03;;
11010;SDS011;5558;42.702;23.178;2022-09-13T02:05:58;4.30;;;3.90;;
11010;SDS011;5558;42.702;23.178;2022-09-13T02:08:31;5.03;;;4.10;;
11010;SDS011;5558;42.702;23.178;2022-09-13T02:11:05;3.70;;;3.40;;
11010;SDS011;5558;42.702;23.178;2022-09-13T02:13:36;4.13;;;3.70;;
11010;SDS011;5558;42.702;23.178;2022-09-13T02:16:07;4.30;;;4.00;;
11010;SDS011;5558;42.702;23.178;2022-09-13T02:18:44;4.50;;;3.70;;
11010;SDS011;5558;42.702;23.178;2022-09-13T02:21:15;4.03;;;3.63;;
11010;SDS011;5558;42.702;23.178;2022-09-13T02:23:48;4.60;;;3.90;;
11010;SDS011;5558;42.702;23.178;2022-09-13T02:26:18;4.67;;;3.97;;
11010;SDS011;5558;42.702;23.178;2022-09-13T02:28:47;4.30;;;3.90;;
11010;SDS011;5558;42.702;23.178;2022-09-13T02:31:18;3.87;;;3.57;;
11010;SDS011;5558;42.702;23.178;2022-09-13T02:34:03;4.17;;;3.77;;
11010;SDS011;5558;42.702;23.178;2022-09-13T02:36:35;4.07;;;3.70;;
11010;SDS011;5558;42.702;23.178;2022-09-13T02:39:06;4.33;;;3.93;;
11010;SDS011;5558;42.702;23.178;2022-09-13T02:41:38;3.80;;;3.50;;
11010;SDS011;5558;42.702;23.178;2022-09-13T02:44:13;4.37;;;3.83;;
11010;SDS011;5558;42.702;23.178;2022-09-13T02:46:53;4.17;;;3.40;;
11010;SDS011;5558;42.702;23.178;2022-09-13T02:49:32;3.90;;;3.60;;
11010;SDS011;5558;42.702;23.178;2022-09-13T02:52:06;3.60;;;3.30;;
11010;SDS011;5558;42.702;23.178;2022-09-13T02:54:38;3.70;;;3.40;;
11010;SDS011;5558;42.702;23.178;2022-09-13T02:57:09;3.60;;;3.30;;
11010;SDS011;5558;42.702;23.178;2022-09-13T02:59:40;4.00;;;3.60;;
11010;SDS011;5558;42.702;23.178;2022-09-13T03:02:07;3.83;;;3.53;;
11010;SDS011;5558;42.702;23.178;2022-09-13T03:04:39;3.80;;;3.50;;
11010;SDS011;5558;42.702;23.178;2022-09-13T03:07:08;4.07;;;3.73;;
11010;SDS011;5558;42.702;23.178;2022-09-13T03:09:36;3.80;;;3.50;;
11010;SDS011;5558;42.702;23.178;2022-09-13T03:12:14;4.50;;;4.10;;
11010;SDS011;5558;42.702;23.178;2022-09-13T03:14:55;3.70;;;3.40;;
11010;SDS011;5558;42.702;23.178;2022-09-13T03:17:38;4.00;;;3.70;;
11010;SDS011;5558;42.702;23.178;2022-09-13T03:20:15;4.07;;;3.67;;
11010;SDS011;5558;42.702;23.178;2022-09-13T03:22:57;3.93;;;3.57;;
11010;SDS011;5558;42.702;23.178;2022-09-13T03:25:41;4.30;;;3.93;;
11010;SDS011;5558;42.702;23.178;2022-09-13T03:28:19;4.30;;;3.90;;
11010;SDS011;5558;42.702;23.178;2022-09-13T03:30:54;3.93;;;3.60;;
11010;SDS011;5558;42.702;23.178;2022-09-13T03:33:29;3.97;;;3.67;;
11010;SDS011;5558;42.702;23.178;2022-09-13T03:36:06;3.77;;;3.47;;
11010;SDS011;5558;42.702;23.178;2022-09-13T03:38:38;4.10;;;3.57;;
11010;SDS011;5558;42.702;23.178;2022-09-13T03:41:09;4.00;;;3.70;;
11010;SDS011;5558;42.702;23.178;2022-09-13T03:43:40;3.70;;;3.30;;
11010;SDS011;5558;42.702;23.178;2022-09-13T03:46:14;3.67;;;3.37;;
11010;SDS011;5558;42.702;23.178;2022-09-13T03:48:44;3.60;;;3.30;;
11010;SDS011;5558;42.702;23.178;2022-09-13T03:51:13;3.23;;;3.03;;
11010;SDS011;5558;42.702;23.178;2022-09-13T03:53:41;3.50;;;3.20;;
11010;SDS011;5558;42.702;23.178;2022-09-13T03:56:11;3.30;;;3.00;;
11010;SDS011;5558;42.702;23.178;2022-09-13T03:58:39;3.73;;;3.17;;
11010;SDS011;5558;42.702;23.178;2022-09-13T04:01:06;3.23;;;3.03;;
11010;SDS011;5558;42.702;23.178;2022-09-13T04:03:34;3.20;;;2.90;;
11010;SDS011;5558;42.702;23.178;2022-09-13T04:06:01;3.60;;;3.30;;
11010;SDS011;5558;42.702;23.178;2022-09-13T04:08:29;3.23;;;3.03;;
11010;SDS011;5558;42.702;23.178;2022-09-13T04:10:57;3.30;;;2.90;;
11010;SDS011;5558;42.702;23.178;2022-09-13T04:13:24;3.37;;;3.07;;
11010;SDS011;5558;42.702;23.178;2022-09-13T04:15:52;3.47;;;3.17;;
11010;SDS011;5558;42.702;23.178;2022-09-13T04:18:18;3.10;;;2.90;;
11010;SDS011;5558;42.702;23.178;2022-09-13T04:20:52;3.40;;;3.10;;
11010;SDS011;5558;42.702;23.178;2022-09-13T04:23:19;3.27;;;3.07;;
11010;SDS011;5558;42.702;23.178;2022-09-13T04:25:48;3.10;;;2.80;;
11010;SDS011;5558;42.702;23.178;2022-09-13T04:28:15;3.63;;;3.13;;
11010;SDS011;5558;42.702;23.178;2022-09-13T04:30:43;3.20;;;2.90;;
11010;SDS011;5558;42.702;23.178;2022-09-13T04:33:10;5.00;;;3.20;;
11010;SDS011;5558;42.702;23.178;2022-09-13T04:35:37;3.10;;;2.80;;
11010;SDS011;5558;42.702;23.178;2022-09-13T04:38:05;3.13;;;2.90;;
11010;SDS011;5558;42.702;23.178;2022-09-13T04:40:32;2.80;;;2.60;;
11010;SDS011;5558;42.702;23.178;2022-09-13T04:43:00;2.70;;;2.50;;
11010;SDS011;5558;42.702;23.178;2022-09-13T04:45:27;2.73;;;2.53;;
11010;SDS011;5558;42.702;23.178;2022-09-13T04:47:54;2.60;;;2.40;;
11010;SDS011;5558;42.702;23.178;2022-09-13T04:50:21;2.50;;;2.30;;
11010;SDS011;5558;42.702;23.178;2022-09-13T04:52:49;2.27;;;2.07;;
11010;SDS011;5558;42.702;23.178;2022-09-13T04:55:19;2.27;;;2.00;;
11010;SDS011;5558;42.702;23.178;2022-09-13T04:57:46;2.40;;;2.20;;
11010;SDS011;5558;42.702;23.178;2022-09-13T05:00:14;2.00;;;1.90;;
11010;SDS011;5558;42.702;23.178;2022-09-13T05:02:42;2.90;;;2.17;;
11010;SDS011;5558;42.702;23.178;2022-09-13T05:05:08;2.10;;;1.90;;
11010;SDS011;5558;42.702;23.178;2022-09-13T05:07:35;2.03;;;1.90;;
11010;SDS011;5558;42.702;23.178;2022-09-13T05:10:02;2.03;;;1.90;;
11010;SDS011;5558;42.702;23.178;2022-09-13T05:12:29;2.17;;;1.80;;
11010;SDS011;5558;42.702;23.178;2022-09-13T05:14:56;2.10;;;2.00;;
11010;SDS011;5558;42.702;23.178;2022-09-13T05:17:24;2.07;;;1.90;;
11010;SDS011;5558;42.702;23.178;2022-09-13T05:19:51;2.00;;;1.90;;
11010;SDS011;5558;42.702;23.178;2022-09-13T05:22:18;2.30;;;2.10;;
11010;SDS011;5558;42.702;23.178;2022-09-13T05:24:44;2.60;;;2.40;;
11010;SDS011;5558;42.702;23.178;2022-09-13T05:27:11;2.43;;;2.20;;
11010;SDS011;5558;42.702;23.178;2022-09-13T05:29:38;2.60;;;2.40;;
11010;SDS011;5558;42.702;23.178;2022-09-13T05:32:04;2.40;;;2.20;;
11010;SDS011;5558;42.702;23.178;2022-09-13T05:34:33;2.90;;;2.60;;
11010;SDS011;5558;42.702;23.178;2022-09-13T05:36:59;2.67;;;2.47;;
11010;SDS011;5558;42.702;23.178;2022-09-13T05:39:26;4.00;;;2.33;;
11010;SDS011;5558;42.702;23.178;2022-09-13T05:41:53;2.73;;;2.53;;
11010;SDS011;5558;42.702;23.178;2022-09-13T05:44:19;2.90;;;2.60;;
11010;SDS011;5558;42.702;23.178;2022-09-13T05:46:47;3.53;;;2.40;;
11010;SDS011;5558;42.702;23.178;2022-09-13T05:49:14;2.50;;;2.30;;
11010;SDS011;5558;42.702;23.178;2022-09-13T05:51:42;2.30;;;2.10;;
11010;SDS011;5558;42.702;23.178;2022-09-13T05:54:10;2.00;;;1.80;;
11010;SDS011;5558;42.702;23.178;2022-09-13T05:56:37;1.67;;;1.57;;
11010;SDS011;5558;42.702;23.178;2022-09-13T05:59:04;2.07;;;1.80;;
11010;SDS011;5558;42.702;23.178;2022-09-13T06:01:31;2.37;;;1.87;;
11010;SDS011;5558;42.702;23.178;2022-09-13T06:03:58;2.00;;;1.80;;
11010;SDS011;5558;42.702;23.178;2022-09-13T06:06:25;2.10;;;1.90;;
11010;SDS011;5558;42.702;23.178;2022-09-13T06:08:53;2.00;;;1.70;;
11010;SDS011;5558;42.702;23.178;2022-09-13T06:11:21;1.60;;;1.50;;
11010;SDS011;5558;42.702;23.178;2022-09-13T06:13:48;1.80;;;1.70;;
11010;SDS011;5558;42.702;23.178;2022-09-13T06:16:16;3.33;;;1.77;;
11010;SDS011;5558;42.702;23.178;2022-09-13T06:18:43;1.67;;;1.57;;
11010;SDS011;5558;42.702;23.178;2022-09-13T06:21:11;1.80;;;1.70;;
11010;SDS011;5558;42.702;23.178;2022-09-13T06:23:41;1.90;;;1.80;;
11010;SDS011;5558;42.702;23.178;2022-09-13T06:26:10;1.77;;;1.60;;
11010;SDS011;5558;42.702;23.178;2022-09-13T06:28:37;1.77;;;1.67;;
11010;SDS011;5558;42.702;23.178;2022-09-13T06:31:05;2.80;;;1.80;;
11010;SDS011;5558;42.702;23.178;2022-09-13T06:33:34;2.13;;;1.80;;
11010;SDS011;5558;42.702;23.178;2022-09-13T06:36:02;1.90;;;1.60;;
11010;SDS011;5558;42.702;23.178;2022-09-13T06:38:30;2.03;;;1.60;;
11010;SDS011;5558;42.702;23.178;2022-09-13T06:41:00;2.07;;;1.87;;
11010;SDS011;5558;42.702;23.178;2022-09-13T06:43:30;2.23;;;1.63;;
11010;SDS011;5558;42.702;23.178;2022-09-13T06:46:00;1.80;;;1.70;;
11010;SDS011;5558;42.702;23.178;2022-09-13T06:48:30;1.60;;;1.50;;
11010;SDS011;5558;42.702;23.178;2022-09-13T06:50:59;2.40;;;1.43;;
11010;SDS011;5558;42.702;23.178;2022-09-13T06:53:26;2.13;;;1.80;;
11010;SDS011;5558;42.702;23.178;2022-09-13T06:56:00;1.70;;;1.60;;
11010;SDS011;5558;42.702;23.178;2022-09-13T06:58:30;1.90;;;1.70;;
11010;SDS011;5558;42.702;23.178;2022-09-13T07:01:07;2.03;;;1.50;;
11010;SDS011;5558;42.702;23.178;2022-09-13T07:03:37;1.80;;;1.70;;
11010;SDS011;5558;42.702;23.178;2022-09-13T07:06:06;1.70;;;1.60;;
11010;SDS011;5558;42.702;23.178;2022-09-13T07:08:34;1.70;;;1.60;;
11010;SDS011;5558;42.702;23.178;2022-09-13T07:11:01;1.50;;;1.40;;
11010;SDS011;5558;42.702;23.178;2022-09-13T07:13:28;1.70;;;1.60;;
11010;SDS011;5558;42.702;23.178;2022-09-13T07:15:56;1.57;;;1.47;;
11010;SDS011;5558;42.702;23.178;2022-09-13T07:18:22;1.87;;;1.60;;
11010;SDS011;5558;42.702;23.178;2022-09-13T07:20:49;1.50;;;1.40;;
11010;SDS011;5558;42.702;23.178;2022-09-13T07:23:16;2.37;;;1.90;;
11010;SDS011;5558;42.702;23.178;2022-09-13T07:25:42;1.70;;;1.57;;
11010;SDS011;5558;42.702;23.178;2022-09-13T07:28:09;2.23;;;1.57;;
11010;SDS011;5558;42.702;23.178;2022-09-13T07:30:37;1.70;;;1.60;;
11010;SDS011;5558;42.702;23.178;2022-09-13T07:33:04;1.90;;;1.70;;
11010;SDS011;5558;42.702;23.178;2022-09-13T07:35:30;1.60;;;1.50;;
11010;SDS011;5558;42.702;23.178;2022-09-13T07:37:57;1.60;;;1.50;;
11010;SDS011;5558;42.702;23.178;2022-09-13T07:40:24;1.73;;;1.63;;
11010;SDS011;5558;42.702;23.178;2022-09-13T08:33:43;1.70;;;1.60;;
11010;SDS011;5558;42.702;23.178;2022-09-13T08:36:10;2.20;;;1.70;;
11010;SDS011;5558;42.702;23.178;2022-09-13T08:38:37;1.70;;;1.60;;
11010;SDS011;5558;42.702;23.178;2022-09-13T08:41:05;1.40;;;1.30;;
11010;SDS011;5558;42.702;23.178;2022-09-13T08:43:53;1.40;;;1.30;;
11010;SDS011;5558;42.702;23.178;2022-09-13T08:46:26;1.43;;;1.33;;
11010;SDS011;5558;42.702;23.178;2022-09-13T08:48:59;1.23;;;1.23;;
11010;SDS011;5558;42.702;23.178;2022-09-13T08:51:31;2.67;;;1.67;;
11010;SDS011;5558;42.702;23.178;2022-09-13T08:54:02;1.60;;;1.50;;
11010;SDS011;5558;42.702;23.178;2022-09-13T08:56:33;1.57;;;1.47;;
11010;SDS011;5558;42.702;23.178;2022-09-13T08:59:07;1.50;;;1.40;;
11010;SDS011;5558;42.702;23.178;2022-09-13T09:01:56;1.47;;;1.30;;
11010;SDS011;5558;42.702;23.178;2022-09-13T09:04:38;7.40;;;1.80;;
11010;SDS011;5558;42.702;23.178;2022-09-13T09:07:11;1.60;;;1.50;;
11010;SDS011;5558;42.702;23.178;2022-09-13T09:09:43;7.87;;;1.90;;
11010;SDS011;5558;42.702;23.178;2022-09-13T09:12:17;1.63;;;1.50;;
11010;SDS011;5558;42.702;23.178;2022-09-13T09:14:55;1.63;;;1.53;;
11010;SDS011;5558;42.702;23.178;2022-09-13T09:17:28;2.30;;;1.50;;
11010;SDS011;5558;42.702;23.178;2022-09-13T09:20:02;1.40;;;1.30;;
11010;SDS011;5558;42.702;23.178;2022-09-13T09:22:39;1.70;;;1.60;;
11010;SDS011;5558;42.702;23.178;2022-09-13T09:25:07;3.50;;;1.70;;
11010;SDS011;5558;42.702;23.178;2022-09-13T09:27:36;1.30;;;1.30;;
11010;SDS011;5558;42.702;23.178;2022-09-13T09:30:03;2.20;;;2.00;;
11010;SDS011;5558;42.702;23.178;2022-09-13T09:35:33;1.70;;;1.50;;
11010;SDS011;5558;42.702;23.178;2022-09-13T09:38:16;2.97;;;2.60;;
11010;SDS011;5558;42.702;23.178;2022-09-13T09:40:55;1.50;;;1.40;;
11010;SDS011;5558;42.702;23.178;2022-09-13T09:43:26;2.97;;;1.80;;
11010;SDS011;5558;42.702;23.178;2022-09-13T09:45:57;2.43;;;1.30;;
11010;SDS011;5558;42.702;23.178;2022-09-13T09:48:28;1.50;;;1.40;;
11010;SDS011;5558;42.702;23.178;2022-09-13T09:51:03;1.40;;;1.30;;
11010;SDS011;5558;42.702;23.178;2022-09-13T09:53:34;1.50;;;1.40;;
11010;SDS011;5558;42.702;23.178;2022-09-13T09:56:11;1.47;;;1.37;;
11010;SDS011;5558;42.702;23.178;2022-09-13T09:58:47;1.47;;;1.37;;
11010;SDS011;5558;42.702;23.178;2022-09-13T10:01:15;1.50;;;1.40;;
11010;SDS011;5558;42.702;23.178;2022-09-13T10:03:50;1.60;;;1.50;;
11010;SDS011;5558;42.702;23.178;2022-09-13T10:06:22;1.30;;;1.27;;
11010;SDS011;5558;42.702;23.178;2022-09-13T10:08:56;1.50;;;1.40;;
11010;SDS011;5558;42.702;23.178;2022-09-13T10:11:42;1.33;;;1.30;;
11010;SDS011;5558;42.702;23.178;2022-09-13T10:14:28;1.47;;;1.30;;
11010;SDS011;5558;42.702;23.178;2022-09-13T10:17:03;1.30;;;1.20;;
11010;SDS011;5558;42.702;23.178;2022-09-13T10:19:39;1.53;;;1.43;;
11010;SDS011;5558;42.702;23.178;2022-09-13T10:22:10;2.17;;;1.40;;
11010;SDS011;5558;42.702;23.178;2022-09-13T10:24:38;1.67;;;1.40;;
11010;SDS011;5558;42.702;23.178;2022-09-13T10:27:05;1.40;;;1.30;;
11010;SDS011;5558;42.702;23.178;2022-09-13T10:29:47;1.40;;;1.30;;
11010;SDS011;5558;42.702;23.178;2022-09-13T10:32:16;1.50;;;1.40;;
11010;SDS011;5558;42.702;23.178;2022-09-13T10:34:44;1.40;;;1.30;;
11010;SDS011;5558;42.702;23.178;2022-09-13T10:37:15;2.03;;;1.30;;
11010;SDS011;5558;42.702;23.178;2022-09-13T10:39:52;1.50;;;1.40;;
11010;SDS011;5558;42.702;23.178;2022-09-13T10:42:24;1.40;;;1.30;;
11010;SDS011;5558;42.702;23.178;2022-09-13T10:44:54;1.20;;;1.20;;
11010;SDS011;5558;42.702;23.178;2022-09-13T10:47:25;2.70;;;1.30;;
11010;SDS011;5558;42.702;23.178;2022-09-13T10:49:57;1.30;;;1.20;;
11010;SDS011;5558;42.702;23.178;2022-09-13T10:52:41;1.30;;;1.20;;
11010;SDS011;5558;42.702;23.178;2022-09-13T10:55:26;1.40;;;1.30;;
11010;SDS011;5558;42.702;23.178;2022-09-13T10:58:10;1.30;;;1.20;;
11010;SDS011;5558;42.702;23.178;2022-09-13T11:00:42;1.10;;;1.10;;
11010;SDS011;5558;42.702;23.178;2022-09-13T11:03:20;1.40;;;1.20;;
11010;SDS011;5558;42.702;23.178;2022-09-13T11:05:59;1.20;;;1.10;;
11010;SDS011;5558;42.702;23.178;2022-09-13T11:08:39;1.70;;;1.30;;
11010;SDS011;5558;42.702;23.178;2022-09-13T11:11:17;1.40;;;1.30;;
11010;SDS011;5558;42.702;23.178;2022-09-13T11:13:53;1.10;;;1.10;;
11010;SDS011;5558;42.702;23.178;2022-09-13T11:16:33;1.93;;;1.30;;
11010;SDS011;5558;42.702;23.178;2022-09-13T11:19:16;1.10;;;1.10;;
11010;SDS011;5558;42.702;23.178;2022-09-13T11:21:59;1.20;;;1.20;;
11010;SDS011;5558;42.702;23.178;2022-09-13T11:24:51;1.23;;;1.20;;
11010;SDS011;5558;42.702;23.178;2022-09-13T11:27:30;1.40;;;1.30;;
11010;SDS011;5558;42.702;23.178;2022-09-13T11:30:11;1.33;;;1.23;;
11010;SDS011;5558;42.702;23.178;2022-09-13T11:35:41;1.10;;;1.10;;
11010;SDS011;5558;42.702;23.178;2022-09-13T11:38:22;1.33;;;1.23;;
11010;SDS011;5558;42.702;23.178;2022-09-13T11:41:07;1.00;;;1.00;;
11010;SDS011;5558;42.702;23.178;2022-09-13T11:43:48;1.40;;;1.30;;
11010;SDS011;5558;42.702;23.178;2022-09-13T11:46:24;1.20;;;1.20;;
11010;SDS011;5558;42.702;23.178;2022-09-13T11:49:00;1.50;;;1.40;;
11010;SDS011;5558;42.702;23.178;2022-09-13T11:51:44;1.50;;;1.30;;
11010;SDS011;5558;42.702;23.178;2022-09-13T11:54:22;1.13;;;1.13;;
11010;SDS011;5558;42.702;23.178;2022-09-13T11:57:01;1.17;;;1.17;;
11010;SDS011;5558;42.702;23.178;2022-09-13T11:59:34;1.30;;;1.20;;
11010;SDS011;5558;42.702;23.178;2022-09-13T12:02:11;1.20;;;1.10;;
11010;SDS011;5558;42.702;23.178;2022-09-13T12:04:44;1.30;;;1.20;;
11010;SDS011;5558;42.702;23.178;2022-09-13T12:07:18;1.73;;;1.47;;
11010;SDS011;5558;42.702;23.178;2022-09-13T12:09:54;1.10;;;1.10;;
11010;SDS011;5558;42.702;23.178;2022-09-13T12:12:28;1.20;;;1.20;;
11010;SDS011;5558;42.702;23.178;2022-09-13T12:14:59;1.37;;;1.10;;
11010;SDS011;5558;42.702;23.178;2022-09-13T12:17:32;1.80;;;1.30;;
11010;SDS011;5558;42.702;23.178;2022-09-13T12:20:03;1.37;;;1.27;;
11010;SDS011;5558;42.702;23.178;2022-09-13T12:22:32;1.63;;;1.20;;
11010;SDS011;5558;42.702;23.178;2022-09-13T12:25:03;1.00;;;1.00;;
11010;SDS011;5558;42.702;23.178;2022-09-13T12:27:39;1.77;;;1.67;;
11010;SDS011;5558;42.702;23.178;2022-09-13T12:30:13;1.37;;;1.07;;
11010;SDS011;5558;42.702;23.178;2022-09-13T12:32:41;1.87;;;1.37;;
11010;SDS011;5558;42.702;23.178;2022-09-13T12:35:13;1.30;;;1.10;;
11010;SDS011;5558;42.702;23.178;2022-09-13T12:40:57;1.07;;;1.07;;
11010;SDS011;5558;42.702;23.178;2022-09-13T12:49:42;1.90;;;1.40;;
11010;SDS011;5558;42.702;23.178;2022-09-13T12:52:22;2.03;;;1.17;;
11010;SDS011;5558;42.702;23.178;2022-09-13T12:55:08;1.30;;;1.20;;
11010;SDS011;5558;42.702;23.178;2022-09-13T12:57:53;1.23;;;1.13;;
11010;SDS011;5558;42.702;23.178;2022-09-13T13:00:32;1.37;;;1.13;;
11010;SDS011;5558;42.702;23.178;2022-09-13T13:03:03;1.23;;;1.10;;
11010;SDS011;5558;42.702;23.178;2022-09-13T13:05:40;1.30;;;1.20;;
11010;SDS011;5558;42.702;23.178;2022-09-13T13:08:19;1.30;;;1.20;;
11010;SDS011;5558;42.702;23.178;2022-09-13T13:10:59;1.43;;;1.33;;
11010;SDS011;5558;42.702;23.178;2022-09-13T13:13:31;1.50;;;1.20;;
11010;SDS011;5558;42.702;23.178;2022-09-13T13:16:03;1.30;;;1.20;;
11010;SDS011;5558;42.702;23.178;2022-09-13T13:18:51;1.50;;;1.30;;
11010;SDS011;5558;42.702;23.178;2022-09-13T13:21:29;1.70;;;1.60;;
11010;SDS011;5558;42.702;23.178;2022-09-13T13:27:01;3.73;;;1.60;;
11010;SDS011;5558;42.702;23.178;2022-09-13T13:33:12;2.33;;;1.60;;
11010;SDS011;5558;42.702;23.178;2022-09-13T13:35:41;1.63;;;1.40;;
11010;SDS011;5558;42.702;23.178;2022-09-13T13:38:15;2.23;;;1.63;;
11010;SDS011;5558;42.702;23.178;2022-09-13T13:41:04;1.60;;;1.50;;
11010;SDS011;5558;42.702;23.178;2022-09-13T13:43:33;1.80;;;1.70;;
11010;SDS011;5558;42.702;23.178;2022-09-13T13:48:56;1.60;;;1.50;;
11010;SDS011;5558;42.702;23.178;2022-09-13T13:57:58;1.90;;;1.50;;
11010;SDS011;5558;42.702;23.178;2022-09-13T14:00:27;1.67;;;1.57;;
11010;SDS011;5558;42.702;23.178;2022-09-13T14:02:58;2.03;;;1.40;;
11010;SDS011;5558;42.702;23.178;2022-09-13T14:05:39;1.50;;;1.40;;
11010;SDS011;5558;42.702;23.178;2022-09-13T14:08:17;1.50;;;1.40;;
11010;SDS011;5558;42.702;23.178;2022-09-13T14:10:57;1.50;;;1.40;;
11010;SDS011;5558;42.702;23.178;2022-09-13T14:13:39;1.63;;;1.33;;
11010;SDS011;5558;42.702;23.178;2022-09-13T14:16:13;1.37;;;1.27;;
11010;SDS011;5558;42.702;23.178;2022-09-13T14:18:57;1.53;;;1.43;;
11010;SDS011;5558;42.702;23.178;2022-09-13T14:21:36;1.27;;;1.23;;
11010;SDS011;5558;42.702;23.178;2022-09-13T14:24:07;1.10;;;1.10;;
11010;SDS011;5558;42.702;23.178;2022-09-13T14:26:40;2.40;;;1.50;;
11010;SDS011;5558;42.702;23.178;2022-09-13T14:29:07;1.40;;;1.40;;
11010;SDS011;5558;42.702;23.178;2022-09-13T14:31:36;1.50;;;1.40;;
11010;SDS011;5558;42.702;23.178;2022-09-13T14:34:03;1.40;;;1.30;;
11010;SDS011;5558;42.702;23.178;2022-09-13T14:36:30;1.40;;;1.30;;
11010;SDS011;5558;42.702;23.178;2022-09-13T14:38:59;1.50;;;1.40;;
11010;SDS011;5558;42.702;23.178;2022-09-13T14:41:30;1.50;;;1.30;;
11010;SDS011;5558;42.702;23.178;2022-09-13T14:44:15;1.57;;;1.37;;
11010;SDS011;5558;42.702;23.178;2022-09-13T14:46:44;1.60;;;1.50;;
11010;SDS011;5558;42.702;23.178;2022-09-13T14:49:14;1.60;;;1.50;;
11010;SDS011;5558;42.702;23.178;2022-09-13T14:51:46;1.50;;;1.40;;
11010;SDS011;5558;42.702;23.178;2022-09-13T14:54:18;2.27;;;1.43;;
11010;SDS011;5558;42.702;23.178;2022-09-13T14:56:49;1.20;;;1.20;;
11010;SDS011;5558;42.702;23.178;2022-09-13T14:59:22;1.47;;;1.33;;
11010;SDS011;5558;42.702;23.178;2022-09-13T15:01:53;1.40;;;1.30;;
11010;SDS011;5558;42.702;23.178;2022-09-13T15:04:22;1.37;;;1.30;;
11010;SDS011;5558;42.702;23.178;2022-09-13T15:07:04;1.30;;;1.30;;
11010;SDS011;5558;42.702;23.178;2022-09-13T15:09:33;1.40;;;1.30;;
11010;SDS011;5558;42.702;23.178;2022-09-13T15:12:02;2.00;;;1.50;;
11010;SDS011;5558;42.702;23.178;2022-09-13T15:14:30;1.50;;;1.40;;
11010;SDS011;5558;42.702;23.178;2022-09-13T15:16:59;1.27;;;1.20;;
11010;SDS011;5558;42.702;23.178;2022-09-13T15:19:36;2.27;;;1.30;;
11010;SDS011;5558;42.702;23.178;2022-09-13T15:22:10;1.43;;;1.33;;
11010;SDS011;5558;42.702;23.178;2022-09-13T15:24:45;1.40;;;1.30;;
11010;SDS011;5558;42.702;23.178;2022-09-13T15:27:21;18.10;;;16.30;;
11010;SDS011;5558;42.702;23.178;2022-09-13T15:29:51;2.00;;;1.70;;
11010;SDS011;5558;42.702;23.178;2022-09-13T15:32:20;1.83;;;1.50;;
11010;SDS011;5558;42.702;23.178;2022-09-13T15:34:48;1.40;;;1.30;;
11010;SDS011;5558;42.702;23.178;2022-09-13T15:37:15;1.33;;;1.30;;
11010;SDS011;5558;42.702;23.178;2022-09-13T15:39:47;1.70;;;1.60;;
11010;SDS011;5558;42.702;23.178;2022-09-13T15:42:15;1.87;;;1.70;;
11010;SDS011;5558;42.702;23.178;2022-09-13T15:44:42;2.43;;;1.70;;
11010;SDS011;5558;42.702;23.178;2022-09-13T15:47:09;1.70;;;1.60;;
11010;SDS011;5558;42.702;23.178;2022-09-13T15:49:40;1.60;;;1.50;;
11010;SDS011;5558;42.702;23.178;2022-09-13T15:52:14;1.50;;;1.40;;
11010;SDS011;5558;42.702;23.178;2022-09-13T15:54:41;1.70;;;1.60;;
11010;SDS011;5558;42.702;23.178;2022-09-13T15:57:12;1.70;;;1.60;;
11010;SDS011;5558;42.702;23.178;2022-09-13T15:59:42;1.70;;;1.60;;
11010;SDS011;5558;42.702;23.178;2022-09-13T16:02:14;1.90;;;1.80;;
11010;SDS011;5558;42.702;23.178;2022-09-13T16:04:43;1.77;;;1.67;;
11010;SDS011;5558;42.702;23.178;2022-09-13T16:07:10;2.77;;;1.80;;
11010;SDS011;5558;42.702;23.178;2022-09-13T16:09:37;1.80;;;1.70;;
11010;SDS011;5558;42.702;23.178;2022-09-13T16:12:06;1.80;;;1.70;;
11010;SDS011;5558;42.702;23.178;2022-09-13T16:14:35;1.80;;;1.70;;
11010;SDS011;5558;42.702;23.178;2022-09-13T16:17:04;1.90;;;1.80;;
11010;SDS011;5558;42.702;23.178;2022-09-13T16:19:32;3.60;;;2.07;;
11010;SDS011;5558;42.702;23.178;2022-09-13T16:21:59;3.67;;;2.00;;
11010;SDS011;5558;42.702;23.178;2022-09-13T16:24:26;2.10;;;1.90;;
11010;SDS011;5558;42.702;23.178;2022-09-13T16:26:52;2.20;;;2.00;;
11010;SDS011;5558;42.702;23.178;2022-09-13T16:29:19;2.60;;;2.20;;
11010;SDS011;5558;42.702;23.178;2022-09-13T16:31:47;6.17;;;2.93;;
11010;SDS011;5558;42.702;23.178;2022-09-13T16:34:14;2.43;;;1.90;;
11010;SDS011;5558;42.702;23.178;2022-09-13T16:36:41;1.90;;;1.80;;
11010;SDS011;5558;42.702;23.178;2022-09-13T16:39:08;3.37;;;1.90;;